sensor_id;sensor_type;location;lat;lon;timestamp;P1;durP1;ratioP1;P2;durP2;ratioP2
13441;SDS011;6793;55.662;13.114;2023-03-01T00:01:36;0.20;;;0.20;;
13441;SDS011;6793;55.662;13.114;2023-03-01T00:04:03;0.20;;;0.20;;
13441;SDS011;6793;55.662;13.114;2023-03-01T00:06:31;0.20;;;0.20;;
13441;SDS011;6793;55.662;13.114;2023-03-01T00:08:58;0.23;;;0.23;;
13441;SDS011;6793;55.662;13.114;2023-03-01T00:11:25;0.20;;;0.20;;
13441;SDS011;6793;55.662;13.114;2023-03-01T00:13:54;0.30;;;0.30;;
13441;SDS011;6793;55.662;13.114;2023-03-01T00:16:22;0.30;;;0.30;;
13441;SDS011;6793;55.662;13.114;2023-03-01T00:18:51;0.50;;;0.50;;
13441;SDS011;6793;55.662;13.114;2023-03-01T00:21:19;0.40;;;0.40;;
13441;SDS011;6793;55.662;13.114;2023-03-01T00:23:47;0.40;;;0.40;;
13441;SDS011;6793;55.662;13.114;2023-03-01T00:26:14;0.30;;;0.30;;
13441;SDS011;6793;55.662;13.114;2023-03-01T00:28:42;0.40;;;0.40;;
13441;SDS011;6793;55.662;13.114;2023-03-01T00:31:10;0.30;;;0.30;;
13441;SDS011;6793;55.662;13.114;2023-03-01T00:33:37;0.40;;;0.40;;
13441;SDS011;6793;55.662;13.114;2023-03-01T00:36:06;0.50;;;0.50;;
13441;SDS011;6793;55.662;13.114;2023-03-01T00:38:34;0.50;;;0.50;;
13441;SDS011;6793;55.662;13.114;2023-03-01T00:41:05;0.50;;;0.50;;
13441;SDS011;6793;55.662;13.114;2023-03-01T00:43:32;0.30;;;0.30;;
13441;SDS011;6793;55.662;13.114;2023-03-01T00:46:01;0.40;;;0.40;;
13441;SDS011;6793;55.662;13.114;2023-03-01T00:48:28;0.30;;;0.30;;
13441;SDS011;6793;55.662;13.114;2023-03-01T00:50:55;0.20;;;0.20;;
13441;SDS011;6793;55.662;13.114;2023-03-01T00:53:24;0.30;;;0.30;;
13441;SDS011;6793;55.662;13.114;2023-03-01T00:55:51;0.30;;;0.30;;
13441;SDS011;6793;55.662;13.114;2023-03-01T00:58:18;0.30;;;0.30;;
13441;SDS011;6793;55.662;13.114;2023-03-01T01:00:45;0.20;;;0.20;;
13441;SDS011;6793;55.662;13.114;2023-03-01T01:03:12;0.20;;;0.20;;
13441;SDS011;6793;55.662;13.114;2023-03-01T01:05:39;0.30;;;0.30;;
13441;SDS011;6793;55.662;13.114;2023-03-01T01:08:06;0.30;;;0.30;;
13441;SDS011;6793;55.662;13.114;2023-03-01T01:10:34;0.30;;;0.30;;
13441;SDS011;6793;55.662;13.114;2023-03-01T01:13:01;0.40;;;0.40;;
13441;SDS011;6793;55.662;13.114;2023-03-01T01:15:29;0.30;;;0.30;;
13441;SDS011;6793;55.662;13.114;2023-03-01T01:17:56;0.30;;;0.30;;
13441;SDS011;6793;55.662;13.114;2023-03-01T01:20:23;0.40;;;0.40;;
13441;SDS011;6793;55.662;13.114;2023-03-01T01:22:50;0.30;;;0.30;;
13441;SDS011;6793;55.662;13.114;2023-03-01T01:25:17;0.30;;;0.30;;
13441;SDS011;6793;55.662;13.114;2023-03-01T01:27:46;0.30;;;0.30;;
13441;SDS011;6793;55.662;13.114;2023-03-01T01:30:13;0.30;;;0.30;;
13441;SDS011;6793;55.662;13.114;2023-03-01T01:32:40;0.30;;;0.30;;
13441;SDS011;6793;55.662;13.114;2023-03-01T01:35:07;0.30;;;0.30;;
13441;SDS011;6793;55.662;13.114;2023-03-01T01:37:34;0.30;;;0.30;;
13441;SDS011;6793;55.662;13.114;2023-03-01T01:40:01;0.30;;;0.30;;
13441;SDS011;6793;55.662;13.114;2023-03-01T01:42:29;0.40;;;0.40;;
13441;SDS011;6793;55.662;13.114;2023-03-01T01:45:26;0.30;;;0.30;;
13441;SDS011;6793;55.662;13.114;2023-03-01T01:47:53;0.40;;;0.40;;
13441;SDS011;6793;55.662;13.114;2023-03-01T01:50:22;0.40;;;0.40;;
13441;SDS011;6793;55.662;13.114;2023-03-01T01:52:49;0.37;;;0.37;;
13441;SDS011;6793;55.662;13.114;2023-03-01T01:55:17;0.30;;;0.30;;
13441;SDS011;6793;55.662;13.114;2023-03-01T01:57:47;0.30;;;0.30;;
13441;SDS011;6793;55.662;13.114;2023-03-01T02:00:16;0.30;;;0.30;;
13441;SDS011;6793;55.662;13.114;2023-03-01T02:02:45;0.30;;;0.30;;
13441;SDS011;6793;55.662;13.114;2023-03-01T02:05:14;0.30;;;0.30;;
13441;SDS011;6793;55.662;13.114;2023-03-01T02:07:42;0.30;;;0.30;;
13441;SDS011;6793;55.662;13.114;2023-03-01T02:10:09;0.30;;;0.30;;
13441;SDS011;6793;55.662;13.114;2023-03-01T02:12:37;0.33;;;0.33;;
13441;SDS011;6793;55.662;13.114;2023-03-01T02:15:05;0.50;;;0.50;;
13441;SDS011;6793;55.662;13.114;2023-03-01T02:17:32;0.80;;;0.80;;
13441;SDS011;6793;55.662;13.114;2023-03-01T02:20:04;1.10;;;1.10;;
13441;SDS011;6793;55.662;13.114;2023-03-01T02:22:35;1.40;;;1.40;;
13441;SDS011;6793;55.662;13.114;2023-03-01T02:25:06;1.20;;;1.20;;
13441;SDS011;6793;55.662;13.114;2023-03-01T02:27:38;1.33;;;1.33;;
13441;SDS011;6793;55.662;13.114;2023-03-01T02:30:09;1.20;;;1.20;;
13441;SDS011;6793;55.662;13.114;2023-03-01T02:32:38;1.20;;;1.20;;
13441;SDS011;6793;55.662;13.114;2023-03-01T02:35:06;1.27;;;1.27;;
13441;SDS011;6793;55.662;13.114;2023-03-01T02:37:34;1.37;;;1.37;;
13441;SDS011;6793;55.662;13.114;2023-03-01T02:40:02;1.30;;;1.30;;
13441;SDS011;6793;55.662;13.114;2023-03-01T02:42:31;0.90;;;0.90;;
13441;SDS011;6793;55.662;13.114;2023-03-01T02:44:58;0.80;;;0.80;;
13441;SDS011;6793;55.662;13.114;2023-03-01T02:47:27;0.70;;;0.70;;
13441;SDS011;6793;55.662;13.114;2023-03-01T02:49:54;0.70;;;0.70;;
13441;SDS011;6793;55.662;13.114;2023-03-01T02:52:29;0.50;;;0.50;;
13441;SDS011;6793;55.662;13.114;2023-03-01T02:55:00;0.57;;;0.57;;
13441;SDS011;6793;55.662;13.114;2023-03-01T02:57:28;0.60;;;0.60;;
13441;SDS011;6793;55.662;13.114;2023-03-01T02:59:56;0.50;;;0.50;;
13441;SDS011;6793;55.662;13.114;2023-03-01T03:02:25;0.50;;;0.50;;
13441;SDS011;6793;55.662;13.114;2023-03-01T03:05:04;0.50;;;0.50;;
13441;SDS011;6793;55.662;13.114;2023-03-01T03:07:33;0.60;;;0.60;;
13441;SDS011;6793;55.662;13.114;2023-03-01T03:10:00;0.70;;;0.70;;
13441;SDS011;6793;55.662;13.114;2023-03-01T03:12:27;0.70;;;0.70;;
13441;SDS011;6793;55.662;13.114;2023-03-01T03:14:54;0.90;;;0.90;;
13441;SDS011;6793;55.662;13.114;2023-03-01T03:17:21;0.90;;;0.90;;
13441;SDS011;6793;55.662;13.114;2023-03-01T03:19:48;1.30;;;1.30;;
13441;SDS011;6793;55.662;13.114;2023-03-01T03:22:17;0.80;;;0.80;;
13441;SDS011;6793;55.662;13.114;2023-03-01T03:24:44;0.80;;;0.80;;
13441;SDS011;6793;55.662;13.114;2023-03-01T03:27:11;0.70;;;0.70;;
13441;SDS011;6793;55.662;13.114;2023-03-01T03:29:38;0.70;;;0.70;;
13441;SDS011;6793;55.662;13.114;2023-03-01T03:32:05;0.70;;;0.70;;
13441;SDS011;6793;55.662;13.114;2023-03-01T03:34:32;0.70;;;0.70;;
13441;SDS011;6793;55.662;13.114;2023-03-01T03:36:59;0.60;;;0.60;;
13441;SDS011;6793;55.662;13.114;2023-03-01T03:39:27;0.60;;;0.60;;
13441;SDS011;6793;55.662;13.114;2023-03-01T03:41:59;0.60;;;0.60;;
13441;SDS011;6793;55.662;13.114;2023-03-01T03:44:26;0.50;;;0.50;;
13441;SDS011;6793;55.662;13.114;2023-03-01T03:46:53;0.50;;;0.50;;
13441;SDS011;6793;55.662;13.114;2023-03-01T03:49:20;0.40;;;0.40;;
13441;SDS011;6793;55.662;13.114;2023-03-01T03:51:47;0.47;;;0.47;;
13441;SDS011;6793;55.662;13.114;2023-03-01T03:54:15;0.30;;;0.30;;
13441;SDS011;6793;55.662;13.114;2023-03-01T03:56:43;0.30;;;0.30;;
13441;SDS011;6793;55.662;13.114;2023-03-01T03:59:10;0.37;;;0.37;;
13441;SDS011;6793;55.662;13.114;2023-03-01T04:01:37;0.40;;;0.40;;
13441;SDS011;6793;55.662;13.114;2023-03-01T04:04:07;0.40;;;0.40;;
13441;SDS011;6793;55.662;13.114;2023-03-01T04:06:34;0.40;;;0.40;;
13441;SDS011;6793;55.662;13.114;2023-03-01T04:09:02;0.50;;;0.50;;
13441;SDS011;6793;55.662;13.114;2023-03-01T04:11:29;0.60;;;0.60;;
13441;SDS011;6793;55.662;13.114;2023-03-01T04:13:57;0.70;;;0.70;;
13441;SDS011;6793;55.662;13.114;2023-03-01T04:16:25;0.70;;;0.70;;
13441;SDS011;6793;55.662;13.114;2023-03-01T04:18:52;0.70;;;0.70;;
13441;SDS011;6793;55.662;13.114;2023-03-01T04:21:21;0.80;;;0.80;;
13441;SDS011;6793;55.662;13.114;2023-03-01T04:23:49;0.80;;;0.80;;
13441;SDS011;6793;55.662;13.114;2023-03-01T04:26:17;0.80;;;0.80;;
13441;SDS011;6793;55.662;13.114;2023-03-01T04:28:45;0.80;;;0.80;;
13441;SDS011;6793;55.662;13.114;2023-03-01T04:31:17;1.00;;;1.00;;
13441;SDS011;6793;55.662;13.114;2023-03-01T04:33:47;1.30;;;1.30;;
13441;SDS011;6793;55.662;13.114;2023-03-01T04:36:16;1.30;;;1.30;;
13441;SDS011;6793;55.662;13.114;2023-03-01T04:38:44;1.00;;;1.00;;
13441;SDS011;6793;55.662;13.114;2023-03-01T04:41:13;1.10;;;1.10;;
13441;SDS011;6793;55.662;13.114;2023-03-01T04:43:41;1.10;;;1.10;;
13441;SDS011;6793;55.662;13.114;2023-03-01T04:46:08;1.37;;;1.37;;
13441;SDS011;6793;55.662;13.114;2023-03-01T04:48:37;1.10;;;1.10;;
13441;SDS011;6793;55.662;13.114;2023-03-01T04:51:04;1.17;;;1.17;;
13441;SDS011;6793;55.662;13.114;2023-03-01T04:53:32;1.10;;;1.10;;
13441;SDS011;6793;55.662;13.114;2023-03-01T04:56:01;1.50;;;1.50;;
13441;SDS011;6793;55.662;13.114;2023-03-01T04:58:28;1.60;;;1.60;;
13441;SDS011;6793;55.662;13.114;2023-03-01T05:00:55;1.90;;;1.90;;
13441;SDS011;6793;55.662;13.114;2023-03-01T05:03:22;2.43;;;2.43;;
13441;SDS011;6793;55.662;13.114;2023-03-01T05:05:51;2.60;;;2.60;;
13441;SDS011;6793;55.662;13.114;2023-03-01T05:08:18;3.27;;;3.17;;
13441;SDS011;6793;55.662;13.114;2023-03-01T05:10:46;3.00;;;3.00;;
13441;SDS011;6793;55.662;13.114;2023-03-01T05:13:14;3.30;;;3.20;;
13441;SDS011;6793;55.662;13.114;2023-03-01T05:15:46;3.00;;;3.00;;
13441;SDS011;6793;55.662;13.114;2023-03-01T05:18:13;3.07;;;3.07;;
13441;SDS011;6793;55.662;13.114;2023-03-01T05:20:41;3.50;;;3.40;;
13441;SDS011;6793;55.662;13.114;2023-03-01T05:23:10;3.70;;;3.60;;
13441;SDS011;6793;55.662;13.114;2023-03-01T05:25:37;3.60;;;3.50;;
13441;SDS011;6793;55.662;13.114;2023-03-01T05:28:06;1.83;;;1.83;;
13441;SDS011;6793;55.662;13.114;2023-03-01T05:30:34;1.70;;;1.70;;
13441;SDS011;6793;55.662;13.114;2023-03-01T05:33:04;1.80;;;1.80;;
13441;SDS011;6793;55.662;13.114;2023-03-01T05:35:35;2.10;;;2.10;;
13441;SDS011;6793;55.662;13.114;2023-03-01T05:38:02;2.10;;;2.10;;
13441;SDS011;6793;55.662;13.114;2023-03-01T05:40:32;2.20;;;2.20;;
13441;SDS011;6793;55.662;13.114;2023-03-01T05:42:59;2.20;;;2.20;;
13441;SDS011;6793;55.662;13.114;2023-03-01T05:45:27;2.20;;;2.20;;
13441;SDS011;6793;55.662;13.114;2023-03-01T05:47:54;2.30;;;2.30;;
13441;SDS011;6793;55.662;13.114;2023-03-01T05:50:22;2.10;;;2.10;;
13441;SDS011;6793;55.662;13.114;2023-03-01T05:52:50;2.20;;;2.20;;
13441;SDS011;6793;55.662;13.114;2023-03-01T05:55:18;2.00;;;2.00;;
13441;SDS011;6793;55.662;13.114;2023-03-01T05:57:47;2.00;;;2.00;;
13441;SDS011;6793;55.662;13.114;2023-03-01T06:00:15;2.00;;;2.00;;
13441;SDS011;6793;55.662;13.114;2023-03-01T06:02:42;2.00;;;2.00;;
13441;SDS011;6793;55.662;13.114;2023-03-01T06:05:10;2.20;;;2.20;;
13441;SDS011;6793;55.662;13.114;2023-03-01T06:07:37;1.80;;;1.80;;
13441;SDS011;6793;55.662;13.114;2023-03-01T06:10:05;2.37;;;2.37;;
13441;SDS011;6793;55.662;13.114;2023-03-01T06:12:32;1.70;;;1.70;;
13441;SDS011;6793;55.662;13.114;2023-03-01T06:15:01;1.10;;;1.10;;
13441;SDS011;6793;55.662;13.114;2023-03-01T06:17:29;1.07;;;1.07;;
13441;SDS011;6793;55.662;13.114;2023-03-01T06:19:56;1.03;;;1.03;;
13441;SDS011;6793;55.662;13.114;2023-03-01T06:22:23;0.90;;;0.90;;
13441;SDS011;6793;55.662;13.114;2023-03-01T06:24:50;0.80;;;0.80;;
13441;SDS011;6793;55.662;13.114;2023-03-01T06:27:17;0.50;;;0.50;;
13441;SDS011;6793;55.662;13.114;2023-03-01T06:29:44;0.50;;;0.50;;
13441;SDS011;6793;55.662;13.114;2023-03-01T06:32:13;0.50;;;0.50;;
13441;SDS011;6793;55.662;13.114;2023-03-01T06:34:40;0.30;;;0.30;;
13441;SDS011;6793;55.662;13.114;2023-03-01T06:37:07;0.20;;;0.20;;
13441;SDS011;6793;55.662;13.114;2023-03-01T06:39:34;0.20;;;0.20;;
13441;SDS011;6793;55.662;13.114;2023-03-01T06:42:01;0.20;;;0.20;;
13441;SDS011;6793;55.662;13.114;2023-03-01T06:44:28;0.10;;;0.10;;
13441;SDS011;6793;55.662;13.114;2023-03-01T06:46:55;0.20;;;0.20;;
13441;SDS011;6793;55.662;13.114;2023-03-01T06:49:23;0.30;;;0.30;;
13441;SDS011;6793;55.662;13.114;2023-03-01T06:51:50;0.30;;;0.30;;
13441;SDS011;6793;55.662;13.114;2023-03-01T06:54:17;0.30;;;0.30;;
13441;SDS011;6793;55.662;13.114;2023-03-01T06:56:47;0.30;;;0.30;;
13441;SDS011;6793;55.662;13.114;2023-03-01T06:59:14;0.40;;;0.40;;
13441;SDS011;6793;55.662;13.114;2023-03-01T07:01:41;0.37;;;0.37;;
13441;SDS011;6793;55.662;13.114;2023-03-01T07:04:08;0.40;;;0.40;;
13441;SDS011;6793;55.662;13.114;2023-03-01T07:06:37;0.40;;;0.40;;
13441;SDS011;6793;55.662;13.114;2023-03-01T07:09:04;0.40;;;0.40;;
13441;SDS011;6793;55.662;13.114;2023-03-01T07:11:31;0.43;;;0.43;;
13441;SDS011;6793;55.662;13.114;2023-03-01T07:13:58;0.40;;;0.40;;
13441;SDS011;6793;55.662;13.114;2023-03-01T07:16:25;0.40;;;0.40;;
13441;SDS011;6793;55.662;13.114;2023-03-01T07:18:55;0.40;;;0.40;;
13441;SDS011;6793;55.662;13.114;2023-03-01T07:21:22;0.60;;;0.60;;
13441;SDS011;6793;55.662;13.114;2023-03-01T07:23:50;0.50;;;0.50;;
13441;SDS011;6793;55.662;13.114;2023-03-01T07:26:17;0.50;;;0.50;;
13441;SDS011;6793;55.662;13.114;2023-03-01T07:28:45;0.40;;;0.40;;
13441;SDS011;6793;55.662;13.114;2023-03-01T07:31:12;0.40;;;0.40;;
13441;SDS011;6793;55.662;13.114;2023-03-01T07:33:39;0.40;;;0.40;;
13441;SDS011;6793;55.662;13.114;2023-03-01T07:36:06;0.37;;;0.37;;
13441;SDS011;6793;55.662;13.114;2023-03-01T07:38:33;0.40;;;0.40;;
13441;SDS011;6793;55.662;13.114;2023-03-01T07:41:03;0.40;;;0.40;;
13441;SDS011;6793;55.662;13.114;2023-03-01T07:43:30;0.40;;;0.40;;
13441;SDS011;6793;55.662;13.114;2023-03-01T07:45:58;0.50;;;0.50;;
13441;SDS011;6793;55.662;13.114;2023-03-01T07:48:25;0.50;;;0.50;;
13441;SDS011;6793;55.662;13.114;2023-03-01T07:50:52;0.50;;;0.50;;
13441;SDS011;6793;55.662;13.114;2023-03-01T07:53:19;0.60;;;0.60;;
13441;SDS011;6793;55.662;13.114;2023-03-01T07:55:46;0.60;;;0.60;;
13441;SDS011;6793;55.662;13.114;2023-03-01T07:58:14;0.80;;;0.80;;
13441;SDS011;6793;55.662;13.114;2023-03-01T08:00:41;1.10;;;1.10;;
13441;SDS011;6793;55.662;13.114;2023-03-01T08:03:08;1.20;;;1.20;;
13441;SDS011;6793;55.662;13.114;2023-03-01T08:05:35;1.00;;;1.00;;
13441;SDS011;6793;55.662;13.114;2023-03-01T08:08:03;1.40;;;1.40;;
13441;SDS011;6793;55.662;13.114;2023-03-01T08:10:31;1.70;;;1.70;;
13441;SDS011;6793;55.662;13.114;2023-03-01T08:12:58;2.57;;;2.57;;
13441;SDS011;6793;55.662;13.114;2023-03-01T08:15:26;2.07;;;2.07;;
13441;SDS011;6793;55.662;13.114;2023-03-01T08:17:53;0.80;;;0.80;;
13441;SDS011;6793;55.662;13.114;2023-03-01T08:20:20;0.70;;;0.70;;
13441;SDS011;6793;55.662;13.114;2023-03-01T08:22:47;0.40;;;0.40;;
13441;SDS011;6793;55.662;13.114;2023-03-01T08:25:14;0.40;;;0.40;;
13441;SDS011;6793;55.662;13.114;2023-03-01T08:27:41;0.30;;;0.30;;
13441;SDS011;6793;55.662;13.114;2023-03-01T08:30:09;0.40;;;0.40;;
13441;SDS011;6793;55.662;13.114;2023-03-01T08:32:38;0.50;;;0.50;;
13441;SDS011;6793;55.662;13.114;2023-03-01T08:35:05;1.80;;;1.80;;
13441;SDS011;6793;55.662;13.114;2023-03-01T08:37:32;1.80;;;1.80;;
13441;SDS011;6793;55.662;13.114;2023-03-01T08:39:59;1.00;;;1.00;;
13441;SDS011;6793;55.662;13.114;2023-03-01T08:42:28;1.70;;;1.70;;
13441;SDS011;6793;55.662;13.114;2023-03-01T08:44:55;0.70;;;0.70;;
13441;SDS011;6793;55.662;13.114;2023-03-01T08:47:23;0.20;;;0.20;;
13441;SDS011;6793;55.662;13.114;2023-03-01T08:49:52;0.00;;;0.00;;
13441;SDS011;6793;55.662;13.114;2023-03-01T08:52:19;1.75;;;0.80;;
13441;SDS011;6793;55.662;13.114;2023-03-01T08:54:46;0.00;;;0.00;;
13441;SDS011;6793;55.662;13.114;2023-03-01T08:57:14;0.00;;;0.00;;
13441;SDS011;6793;55.662;13.114;2023-03-01T08:59:41;0.88;;;0.88;;
13441;SDS011;6793;55.662;13.114;2023-03-01T09:02:10;0.00;;;0.00;;
13441;SDS011;6793;55.662;13.114;2023-03-01T09:04:38;0.00;;;0.00;;
13441;SDS011;6793;55.662;13.114;2023-03-01T09:07:06;0.10;;;0.10;;
13441;SDS011;6793;55.662;13.114;2023-03-01T09:09:34;0.00;;;0.00;;
13441;SDS011;6793;55.662;13.114;2023-03-01T09:12:01;0.00;;;0.00;;
13441;SDS011;6793;55.662;13.114;2023-03-01T09:14:28;0.00;;;0.00;;
13441;SDS011;6793;55.662;13.114;2023-03-01T09:16:55;0.00;;;0.00;;
13441;SDS011;6793;55.662;13.114;2023-03-01T09:19:22;0.00;;;0.00;;
13441;SDS011;6793;55.662;13.114;2023-03-01T09:21:49;0.00;;;0.00;;
13441;SDS011;6793;55.662;13.114;2023-03-01T09:24:20;0.00;;;0.00;;
